Hanjin Phoenix — A8CN9 — position and weather

sailwx.info

Track history (hours):
 
Tides and Currents Weather Stations Pressure Air Temp Water Temp Dewpoint Dewpoint Depression Visibility Wind Speed Wind Dir Waves Ship Positions

Hanjin Phoenix

Last reported at 2014-Oct-31 09:07 UTC. Time now 2014-Oct-31 12:13 UTC.
Position N 29°18' W 094°37'.

Length 282.1 m; beam 32.2 m; draft 13 m.

Type: Ship. MMSI: 636090671.

Date/timePositionNaut miles runAvg speedWind from/ knotsBaromVisibWave heightAir tempDewpointWater temp
2014-Oct-31 09:07N 29°18' W 094°37'813.2
2014-Oct-31 08:32N 29°21' W 094°45'1212.6
2014-Oct-31 07:33N 29°31' W 094°53'1211.7
2014-Oct-31 06:33N 29°41' W 094°59'1 0.7
2014-Oct-31 05:19N 29°41' W 095°00'0 0.0
2014-Oct-31 04:31N 29°41' W 095°00'0 0.0
2014-Oct-31 03:28N 29°41' W 095°00'0 0.0
2014-Oct-31 02:31N 29°41' W 095°00'0 0.0
2014-Oct-31 01:31N 29°41' W 095°00'0 0.0
2014-Oct-31 00:31N 29°41' W 095°00'0 0.0
2014-Oct-30 23:31N 29°41' W 095°00'0 0.0
2014-Oct-30 22:31N 29°41' W 095°00'0 0.0
2014-Oct-30 21:33N 29°41' W 095°00'0 0.0
2014-Oct-30 20:33N 29°41' W 095°00'0 0.0
2014-Oct-30 19:30N 29°41' W 095°00'0 0.0
2014-Oct-30 18:32N 29°41' W 095°00'0 0.0
2014-Oct-30 17:33N 29°41' W 095°00'0 0.0
2014-Oct-30 16:33N 29°41' W 095°00'0 0.0
2014-Oct-30 15:33N 29°41' W 095°00'0 0.0
2014-Oct-30 14:33N 29°41' W 095°00'0 0.0
2014-Oct-30 13:32N 29°41' W 095°00'0 0.0
2014-Oct-30 12:33N 29°41' W 095°00'0 0.0
2014-Oct-30 11:32N 29°41' W 095°00'0 0.0
2014-Oct-30 10:32N 29°41' W 095°00'0 0.2
2014-Oct-30 09:33N 29°41' W 095°00'7 6.7
2014-Oct-30 08:32N 29°35' W 094°56'1313.7
2014-Oct-30 07:33N 29°23' W 094°49'  
2014-Oct-26 16:28N 19°14' W 095°58'8 9.1
2014-Oct-26 15:33N 19°12' W 096°07'1 1.3
2014-Oct-26 14:31N 19°13' W 096°08'0 0.0
2014-Oct-26 13:34N 19°13' W 096°08'0 0.0
2014-Oct-26 12:30N 19°13' W 096°08'0 0.0
2014-Oct-26 11:33N 19°13' W 096°08'0 0.0
2014-Oct-26 10:33N 19°13' W 096°08'0 0.0
2014-Oct-26 09:29N 19°13' W 096°08'0 0.0
2014-Oct-26 08:30N 19°13' W 096°08'0 0.0
2014-Oct-26 07:33N 19°13' W 096°08'0 0.0
2014-Oct-26 06:30N 19°13' W 096°08'0 0.0
2014-Oct-26 05:31N 19°13' W 096°08'0 0.0
2014-Oct-26 04:28N 19°13' W 096°08'0 0.0
2014-Oct-26 03:33N 19°13' W 096°08'5 5.5
2014-Oct-26 02:33N 19°11' W 096°02'3 0.4
2014-Oct-25 18:34N 19°09' W 096°00'  
2014-Oct-22 12:00N 18°42' W 080°42'   130 / 161011.010.8 0.528.225.529.0
Track history (hours):
 
Tides and Currents Weather Stations Pressure Air Temp Water Temp Dewpoint Dewpoint Depression Visibility Wind Speed Wind Dir Waves Ship Positions

Hanjin Phoenix

Last reported at 2014-Oct-31 09:07 UTC. Time now 2014-Oct-31 12:13 UTC.
Position N 29°18' W 094°37'.

Length 282.1 m; beam 32.2 m; draft 13 m.

Type: Ship. MMSI: 636090671.

Date/timePositionNaut miles runAvg speedWind from/ knotsBaromVisibWave heightAir tempDewpointWater temp
2014-Oct-31 09:07N 29°18' W 094°37'813.2
2014-Oct-31 08:32N 29°21' W 094°45'1212.6
2014-Oct-31 07:33N 29°31' W 094°53'1211.7
2014-Oct-31 06:33N 29°41' W 094°59'1 0.7
2014-Oct-31 05:19N 29°41' W 095°00'0 0.0
2014-Oct-31 04:31N 29°41' W 095°00'0 0.0
2014-Oct-31 03:28N 29°41' W 095°00'0 0.0
2014-Oct-31 02:31N 29°41' W 095°00'0 0.0
2014-Oct-31 01:31N 29°41' W 095°00'0 0.0
2014-Oct-31 00:31N 29°41' W 095°00'0 0.0
2014-Oct-30 23:31N 29°41' W 095°00'0 0.0
2014-Oct-30 22:31N 29°41' W 095°00'0 0.0
2014-Oct-30 21:33N 29°41' W 095°00'0 0.0
2014-Oct-30 20:33N 29°41' W 095°00'0 0.0
2014-Oct-30 19:30N 29°41' W 095°00'0 0.0
2014-Oct-30 18:32N 29°41' W 095°00'0 0.0
2014-Oct-30 17:33N 29°41' W 095°00'0 0.0
2014-Oct-30 16:33N 29°41' W 095°00'0 0.0
2014-Oct-30 15:33N 29°41' W 095°00'0 0.0
2014-Oct-30 14:33N 29°41' W 095°00'0 0.0
2014-Oct-30 13:32N 29°41' W 095°00'0 0.0
2014-Oct-30 12:33N 29°41' W 095°00'0 0.0
2014-Oct-30 11:32N 29°41' W 095°00'0 0.0
2014-Oct-30 10:32N 29°41' W 095°00'0 0.2
2014-Oct-30 09:33N 29°41' W 095°00'7 6.7
2014-Oct-30 08:32N 29°35' W 094°56'1313.7
2014-Oct-30 07:33N 29°23' W 094°49'  
2014-Oct-26 16:28N 19°14' W 095°58'8 9.1
2014-Oct-26 15:33N 19°12' W 096°07'1 1.3
2014-Oct-26 14:31N 19°13' W 096°08'0 0.0
2014-Oct-26 13:34N 19°13' W 096°08'0 0.0
2014-Oct-26 12:30N 19°13' W 096°08'0 0.0
2014-Oct-26 11:33N 19°13' W 096°08'0 0.0
2014-Oct-26 10:33N 19°13' W 096°08'0 0.0
2014-Oct-26 09:29N 19°13' W 096°08'0 0.0
2014-Oct-26 08:30N 19°13' W 096°08'0 0.0
2014-Oct-26 07:33N 19°13' W 096°08'0 0.0
2014-Oct-26 06:30N 19°13' W 096°08'0 0.0
2014-Oct-26 05:31N 19°13' W 096°08'0 0.0
2014-Oct-26 04:28N 19°13' W 096°08'0 0.0
2014-Oct-26 03:33N 19°13' W 096°08'5 5.5
2014-Oct-26 02:33N 19°11' W 096°02'3 0.4
2014-Oct-25 18:34N 19°09' W 096°00'  
2014-Oct-22 12:00N 18°42' W 080°42'   130 / 161011.010.8 0.528.225.529.0

Dump ship's entire track history